sensor_id;sensor_type;location;lat;lon;timestamp;pressure;altitude;pressure_sealevel;temperature;humidity
77572;BME280;67214;47.454;18.966;2023-08-12T10:07:17;100795.05;;;28.18;43.06
77572;BME280;67214;47.454;18.966;2023-08-12T10:09:45;100808.75;;;28.70;40.21
77572;BME280;67214;47.454;18.966;2023-08-12T10:12:13;100798.01;;;28.93;36.76
77572;BME280;67214;47.454;18.966;2023-08-12T10:14:42;100790.31;;;28.32;39.80
77572;BME280;67214;47.454;18.966;2023-08-12T10:17:10;100792.09;;;28.44;38.09
77572;BME280;67214;47.454;18.966;2023-08-12T10:19:38;100790.31;;;28.41;38.81
77572;BME280;67214;47.454;18.966;2023-08-12T10:22:08;100793.64;;;28.34;37.20
77572;BME280;67214;47.454;18.966;2023-08-12T10:24:37;100789.78;;;27.92;38.58
77572;BME280;67214;47.454;18.966;2023-08-12T10:27:05;100789.63;;;27.49;38.85
77572;BME280;67214;47.454;18.966;2023-08-12T10:29:32;100788.02;;;27.35;39.96
77572;BME280;67214;47.454;18.966;2023-08-12T10:32:01;100786.37;;;26.98;42.02
77572;BME280;67214;47.454;18.966;2023-08-12T10:34:29;100794.37;;;26.93;41.63
77572;BME280;67214;47.454;18.966;2023-08-12T10:36:59;100790.72;;;26.70;40.95
77572;BME280;67214;47.454;18.966;2023-08-12T10:39:27;100791.35;;;26.66;40.94
77572;BME280;67214;47.454;18.966;2023-08-12T10:41:56;100783.02;;;26.61;42.50
77572;BME280;67214;47.454;18.966;2023-08-12T10:44:37;100780.83;;;26.47;42.40
77572;BME280;67214;47.454;18.966;2023-08-12T10:46:57;100787.52;;;26.18;43.35
77572;BME280;67214;47.454;18.966;2023-08-12T10:49:25;100783.22;;;26.13;43.39
77572;BME280;67214;47.454;18.966;2023-08-12T10:51:54;100777.69;;;26.11;43.80
77572;BME280;67214;47.454;18.966;2023-08-12T10:54:26;100779.82;;;26.28;43.63
77572;BME280;67214;47.454;18.966;2023-08-12T10:57:06;100776.52;;;26.55;44.12
77572;BME280;67214;47.454;18.966;2023-08-12T11:02:28;100773.03;;;26.77;42.54
77572;BME280;67214;47.454;18.966;2023-08-12T11:05:09;100766.08;;;27.61;40.05
77572;BME280;67214;47.454;18.966;2023-08-12T11:07:57;100768.06;;;27.79;39.71
77572;BME280;67214;47.454;18.966;2023-08-12T11:10:29;100757.95;;;28.35;39.49
77572;BME280;67214;47.454;18.966;2023-08-12T11:12:57;100768.30;;;28.60;38.86
77572;BME280;67214;47.454;18.966;2023-08-12T11:15:44;100756.69;;;28.56;37.50
77572;BME280;67214;47.454;18.966;2023-08-12T11:18:17;100760.62;;;28.51;37.93
77572;BME280;67214;47.454;18.966;2023-08-12T11:20:49;100752.38;;;29.30;37.16
77572;BME280;67214;47.454;18.966;2023-08-12T11:23:17;100749.36;;;29.50;36.53
77572;BME280;67214;47.454;18.966;2023-08-12T11:25:46;100737.91;;;29.83;35.40
77572;BME280;67214;47.454;18.966;2023-08-12T11:28:17;100735.22;;;29.94;35.39
77572;BME280;67214;47.454;18.966;2023-08-12T11:30:46;100735.58;;;30.21;34.27
77572;BME280;67214;47.454;18.966;2023-08-12T11:33:16;100731.45;;;29.66;34.72
77572;BME280;67214;47.454;18.966;2023-08-12T11:35:47;100725.52;;;29.80;35.38
77572;BME280;67214;47.454;18.966;2023-08-12T11:38:15;100727.45;;;30.24;35.14
77572;BME280;67214;47.454;18.966;2023-08-12T11:40:43;100723.97;;;30.63;35.07
77572;BME280;67214;47.454;18.966;2023-08-12T11:43:11;100732.28;;;30.94;35.20
77572;BME280;67214;47.454;18.966;2023-08-12T11:45:41;100727.55;;;30.17;33.48
77572;BME280;67214;47.454;18.966;2023-08-12T11:48:09;100715.45;;;31.00;34.70
77572;BME280;67214;47.454;18.966;2023-08-12T11:50:38;100720.09;;;31.27;32.13
77572;BME280;67214;47.454;18.966;2023-08-12T11:53:06;100714.48;;;31.79;33.56
77572;BME280;67214;47.454;18.966;2023-08-12T11:55:34;100720.72;;;31.91;32.28
77572;BME280;67214;47.454;18.966;2023-08-12T11:58:03;100719.19;;;30.70;33.56
77572;BME280;67214;47.454;18.966;2023-08-12T12:00:32;100719.34;;;30.17;32.97
77572;BME280;67214;47.454;18.966;2023-08-12T12:03:00;100710.41;;;30.45;33.71
77572;BME280;67214;47.454;18.966;2023-08-12T12:05:29;100710.05;;;30.65;33.42
77572;BME280;67214;47.454;18.966;2023-08-12T12:08:02;100700.22;;;30.43;32.95
77572;BME280;67214;47.454;18.966;2023-08-12T12:10:33;100692.30;;;30.81;32.75
77572;BME280;67214;47.454;18.966;2023-08-12T12:13:03;100701.30;;;30.93;33.93
77572;BME280;67214;47.454;18.966;2023-08-12T12:15:40;100683.95;;;30.88;33.61
77572;BME280;67214;47.454;18.966;2023-08-12T12:18:12;100687.30;;;30.64;34.34
77572;BME280;67214;47.454;18.966;2023-08-12T12:20:58;100683.47;;;30.65;34.94
77572;BME280;67214;47.454;18.966;2023-08-12T12:23:29;100693.33;;;31.04;34.42
77572;BME280;67214;47.454;18.966;2023-08-12T12:26:01;100688.97;;;30.93;33.98
77572;BME280;67214;47.454;18.966;2023-08-12T12:28:29;100686.31;;;30.56;34.96
77572;BME280;67214;47.454;18.966;2023-08-12T12:30:57;100681.08;;;30.08;33.73
77572;BME280;67214;47.454;18.966;2023-08-12T12:33:26;100683.01;;;30.08;35.01
77572;BME280;67214;47.454;18.966;2023-08-12T12:35:53;100677.80;;;30.09;34.06
77572;BME280;67214;47.454;18.966;2023-08-12T12:38:21;100672.23;;;30.15;34.68
77572;BME280;67214;47.454;18.966;2023-08-12T12:40:48;100667.78;;;30.12;34.29
77572;BME280;67214;47.454;18.966;2023-08-12T12:43:16;100667.52;;;30.48;34.89
77572;BME280;67214;47.454;18.966;2023-08-12T12:45:43;100667.73;;;30.35;37.13
77572;BME280;67214;47.454;18.966;2023-08-12T12:48:11;100669.00;;;30.81;35.78
77572;BME280;67214;47.454;18.966;2023-08-12T12:50:38;100664.70;;;30.85;33.41
77572;BME280;67214;47.454;18.966;2023-08-12T12:53:05;100664.61;;;30.95;33.31
77572;BME280;67214;47.454;18.966;2023-08-12T12:55:33;100670.17;;;30.34;33.17
77572;BME280;67214;47.454;18.966;2023-08-12T12:58:00;100662.19;;;29.21;34.50
77572;BME280;67214;47.454;18.966;2023-08-12T13:00:28;100657.47;;;29.93;33.34
77572;BME280;67214;47.454;18.966;2023-08-12T13:02:55;100651.22;;;30.18;36.66
77572;BME280;67214;47.454;18.966;2023-08-12T13:05:22;100657.39;;;29.79;33.36
77572;BME280;67214;47.454;18.966;2023-08-12T13:07:50;100655.17;;;29.87;33.22
77572;BME280;67214;47.454;18.966;2023-08-12T13:10:17;100649.62;;;29.96;33.54
77572;BME280;67214;47.454;18.966;2023-08-12T13:12:45;100646.11;;;30.59;34.24
77572;BME280;67214;47.454;18.966;2023-08-12T13:15:12;100643.78;;;30.79;33.03
77572;BME280;67214;47.454;18.966;2023-08-12T13:17:40;100642.89;;;30.90;33.16
77572;BME280;67214;47.454;18.966;2023-08-12T13:20:09;100645.95;;;30.52;33.07
77572;BME280;67214;47.454;18.966;2023-08-12T13:22:36;100641.51;;;30.62;32.62
77572;BME280;67214;47.454;18.966;2023-08-12T13:25:04;100640.66;;;31.02;33.21
77572;BME280;67214;47.454;18.966;2023-08-12T13:27:31;100634.64;;;31.16;32.35
77572;BME280;67214;47.454;18.966;2023-08-12T13:29:59;100635.41;;;31.14;32.13
77572;BME280;67214;47.454;18.966;2023-08-12T13:32:26;100635.54;;;30.93;32.32
77572;BME280;67214;47.454;18.966;2023-08-12T13:34:54;100634.34;;;31.29;32.26
77572;BME280;67214;47.454;18.966;2023-08-12T13:37:21;100622.01;;;31.15;32.07
77572;BME280;67214;47.454;18.966;2023-08-12T13:39:49;100626.92;;;31.13;32.45
77572;BME280;67214;47.454;18.966;2023-08-12T13:42:17;100632.72;;;30.60;34.42
77572;BME280;67214;47.454;18.966;2023-08-12T13:44:45;100616.69;;;30.80;33.19
77572;BME280;67214;47.454;18.966;2023-08-12T13:47:12;100614.85;;;30.43;33.14
77572;BME280;67214;47.454;18.966;2023-08-12T13:49:41;100618.53;;;31.20;34.33
77572;BME280;67214;47.454;18.966;2023-08-12T13:52:09;100623.43;;;31.34;31.43
77572;BME280;67214;47.454;18.966;2023-08-12T13:54:36;100624.31;;;32.45;30.82
77572;BME280;67214;47.454;18.966;2023-08-12T13:57:04;100617.96;;;31.18;31.85
77572;BME280;67214;47.454;18.966;2023-08-12T13:59:31;100613.69;;;31.41;31.80
77572;BME280;67214;47.454;18.966;2023-08-12T14:01:59;100621.84;;;31.86;30.78
77572;BME280;67214;47.454;18.966;2023-08-12T14:04:28;100593.69;;;33.04;28.71
77572;BME280;67214;47.454;18.966;2023-08-12T14:06:55;100611.28;;;32.79;29.27
77572;BME280;67214;47.454;18.966;2023-08-12T14:09:22;100603.52;;;33.25;28.41
77572;BME280;67214;47.454;18.966;2023-08-12T14:11:50;100601.62;;;33.28;28.23
77572;BME280;67214;47.454;18.966;2023-08-12T14:14:17;100593.15;;;34.70;27.84
77572;BME280;67214;47.454;18.966;2023-08-12T14:16:45;100596.67;;;34.56;28.40
77572;BME280;67214;47.454;18.966;2023-08-12T14:19:12;100593.25;;;33.79;27.95
77572;BME280;67214;47.454;18.966;2023-08-12T14:21:41;100596.16;;;32.77;29.78
77572;BME280;67214;47.454;18.966;2023-08-12T14:24:09;100591.48;;;34.07;28.26
77572;BME280;67214;47.454;18.966;2023-08-12T14:26:37;100588.06;;;34.44;28.78
77572;BME280;67214;47.454;18.966;2023-08-12T14:29:04;100592.45;;;34.40;28.46
77572;BME280;67214;47.454;18.966;2023-08-12T14:31:32;100588.72;;;33.01;29.79
77572;BME280;67214;47.454;18.966;2023-08-12T14:34:00;100591.48;;;32.12;30.67
77572;BME280;67214;47.454;18.966;2023-08-12T14:36:29;100582.95;;;30.94;32.80
77572;BME280;67214;47.454;18.966;2023-08-12T14:39:02;100585.90;;;30.62;33.62
77572;BME280;67214;47.454;18.966;2023-08-12T14:41:30;100583.70;;;30.75;34.34
77572;BME280;67214;47.454;18.966;2023-08-12T14:43:59;100588.39;;;30.37;33.38
77572;BME280;67214;47.454;18.966;2023-08-12T14:46:26;100581.05;;;30.26;33.63
77572;BME280;67214;47.454;18.966;2023-08-12T14:48:55;100575.16;;;30.20;33.90
77572;BME280;67214;47.454;18.966;2023-08-12T14:51:23;100584.86;;;29.88;34.70
77572;BME280;67214;47.454;18.966;2023-08-12T14:53:51;100577.78;;;29.22;34.40
77572;BME280;67214;47.454;18.966;2023-08-12T14:56:18;100573.13;;;29.55;35.37
77572;BME280;67214;47.454;18.966;2023-08-12T14:58:46;100574.73;;;29.77;36.70
77572;BME280;67214;47.454;18.966;2023-08-12T15:01:13;100566.67;;;29.59;35.32
77572;BME280;67214;47.454;18.966;2023-08-12T15:03:41;100569.27;;;29.30;35.72
77572;BME280;67214;47.454;18.966;2023-08-12T15:06:08;100561.78;;;29.17;35.20
77572;BME280;67214;47.454;18.966;2023-08-12T15:08:36;100565.05;;;29.28;36.14
77572;BME280;67214;47.454;18.966;2023-08-12T15:11:04;100550.77;;;29.35;35.38
77572;BME280;67214;47.454;18.966;2023-08-12T15:13:32;100555.67;;;29.24;35.29
77572;BME280;67214;47.454;18.966;2023-08-12T15:15:59;100555.48;;;29.37;36.36
77572;BME280;67214;47.454;18.966;2023-08-12T15:18:27;100551.21;;;29.20;35.27
77572;BME280;67214;47.454;18.966;2023-08-12T15:20:54;100548.53;;;29.23;35.69
77572;BME280;67214;47.454;18.966;2023-08-12T15:23:21;100551.42;;;29.07;36.01
77572;BME280;67214;47.454;18.966;2023-08-12T15:25:49;100546.45;;;29.27;37.05
77572;BME280;67214;47.454;18.966;2023-08-12T15:28:16;100537.53;;;29.08;35.83
77572;BME280;67214;47.454;18.966;2023-08-12T15:30:49;100536.33;;;28.93;36.27
77572;BME280;67214;47.454;18.966;2023-08-12T15:33:19;100537.88;;;29.00;36.08
77572;BME280;67214;47.454;18.966;2023-08-12T15:35:46;100539.30;;;29.03;35.94
77572;BME280;67214;47.454;18.966;2023-08-12T15:38:15;100535.20;;;29.03;36.46
77572;BME280;67214;47.454;18.966;2023-08-12T15:40:42;100531.78;;;28.87;35.89
77572;BME280;67214;47.454;18.966;2023-08-12T15:43:10;100527.66;;;28.96;36.58
77572;BME280;67214;47.454;18.966;2023-08-12T15:45:37;100532.41;;;29.00;37.87
77572;BME280;67214;47.454;18.966;2023-08-12T15:48:07;100522.14;;;28.93;36.29
77572;BME280;67214;47.454;18.966;2023-08-12T15:50:35;100529.23;;;28.94;36.68
77572;BME280;67214;47.454;18.966;2023-08-12T15:53:04;100535.23;;;28.94;38.00
77572;BME280;67214;47.454;18.966;2023-08-12T15:55:31;100532.84;;;28.86;36.44
77572;BME280;67214;47.454;18.966;2023-08-12T15:57:59;100533.87;;;28.94;37.96
77572;BME280;67214;47.454;18.966;2023-08-12T16:00:26;100518.33;;;28.74;36.85
77572;BME280;67214;47.454;18.966;2023-08-12T16:02:56;100525.81;;;28.78;36.80
77572;BME280;67214;47.454;18.966;2023-08-12T16:05:24;100527.24;;;28.69;37.11
77572;BME280;67214;47.454;18.966;2023-08-12T16:07:52;100519.46;;;28.66;38.01
77572;BME280;67214;47.454;18.966;2023-08-12T16:10:20;100523.14;;;28.60;39.58
77572;BME280;67214;47.454;18.966;2023-08-12T16:12:47;100520.31;;;28.57;37.03
77572;BME280;67214;47.454;18.966;2023-08-12T16:15:14;100520.08;;;28.68;38.00
77572;BME280;67214;47.454;18.966;2023-08-12T16:17:42;100515.84;;;28.63;37.72
77572;BME280;67214;47.454;18.966;2023-08-12T16:20:10;100523.88;;;28.58;38.02
77572;BME280;67214;47.454;18.966;2023-08-12T16:22:38;100513.12;;;28.54;37.86
77572;BME280;67214;47.454;18.966;2023-08-12T16:25:06;100521.38;;;28.36;37.50
77572;BME280;67214;47.454;18.966;2023-08-12T16:27:34;100512.75;;;28.02;38.63
77572;BME280;67214;47.454;18.966;2023-08-12T16:30:01;100521.24;;;27.94;38.65
77572;BME280;67214;47.454;18.966;2023-08-12T16:32:29;100525.86;;;27.94;38.48
77572;BME280;67214;47.454;18.966;2023-08-12T16:34:56;100522.07;;;27.86;38.85
77572;BME280;67214;47.454;18.966;2023-08-12T16:37:23;100527.52;;;27.77;39.95
77572;BME280;67214;47.454;18.966;2023-08-12T16:39:51;100523.89;;;27.73;40.97
77572;BME280;67214;47.454;18.966;2023-08-12T16:42:19;100518.52;;;27.67;39.69
77572;BME280;67214;47.454;18.966;2023-08-12T16:44:47;100520.08;;;27.56;40.82
77572;BME280;67214;47.454;18.966;2023-08-12T16:47:15;100519.70;;;27.53;40.47
77572;BME280;67214;47.454;18.966;2023-08-12T16:49:42;100515.33;;;27.36;40.95
77572;BME280;67214;47.454;18.966;2023-08-12T16:52:09;100523.88;;;27.31;40.03
77572;BME280;67214;47.454;18.966;2023-08-12T16:54:37;100521.44;;;27.22;41.18
77572;BME280;67214;47.454;18.966;2023-08-12T16:57:04;100525.77;;;27.05;42.33
77572;BME280;67214;47.454;18.966;2023-08-12T16:59:32;100525.14;;;27.03;41.12
77572;BME280;67214;47.454;18.966;2023-08-12T17:01:59;100524.69;;;26.97;41.06
77572;BME280;67214;47.454;18.966;2023-08-12T17:04:27;100521.92;;;26.88;41.41
77572;BME280;67214;47.454;18.966;2023-08-12T17:06:56;100521.19;;;26.68;43.06
77572;BME280;67214;47.454;18.966;2023-08-12T17:09:24;100526.23;;;26.49;44.08
77572;BME280;67214;47.454;18.966;2023-08-12T17:11:54;100524.42;;;26.36;43.47
77572;BME280;67214;47.454;18.966;2023-08-12T17:14:22;100524.87;;;26.26;44.34
77572;BME280;67214;47.454;18.966;2023-08-12T17:16:51;100530.88;;;26.19;43.08
77572;BME280;67214;47.454;18.966;2023-08-12T17:19:18;100532.65;;;26.16;43.31
77572;BME280;67214;47.454;18.966;2023-08-12T17:21:46;100538.01;;;26.07;44.64
77572;BME280;67214;47.454;18.966;2023-08-12T17:24:13;100544.92;;;25.97;45.44
77572;BME280;67214;47.454;18.966;2023-08-12T17:26:41;100532.20;;;25.84;46.52
77572;BME280;67214;47.454;18.966;2023-08-12T17:29:08;100542.41;;;25.66;47.82
77572;BME280;67214;47.454;18.966;2023-08-12T17:31:36;100541.66;;;25.49;49.06
77572;BME280;67214;47.454;18.966;2023-08-12T17:34:03;100537.42;;;25.30;48.99
77572;BME280;67214;47.454;18.966;2023-08-12T17:36:31;100541.48;;;25.17;49.80
77572;BME280;67214;47.454;18.966;2023-08-12T17:38:59;100534.70;;;24.97;51.27
77572;BME280;67214;47.454;18.966;2023-08-12T17:41:26;100537.13;;;24.79;52.42
77572;BME280;67214;47.454;18.966;2023-08-12T17:43:55;100537.75;;;24.62;52.73
77572;BME280;67214;47.454;18.966;2023-08-12T17:46:23;100542.30;;;24.48;52.45
77572;BME280;67214;47.454;18.966;2023-08-12T17:48:50;100535.66;;;24.33;53.68
77572;BME280;67214;47.454;18.966;2023-08-12T17:51:19;100542.60;;;24.19;54.50
77572;BME280;67214;47.454;18.966;2023-08-12T17:53:48;100552.05;;;23.78;56.54
77572;BME280;67214;47.454;18.966;2023-08-12T17:56:17;100552.05;;;23.78;56.54
77572;BME280;67214;47.454;18.966;2023-08-12T17:58:45;100551.67;;;23.64;57.43
77572;BME280;67214;47.454;18.966;2023-08-12T18:01:12;100543.09;;;23.43;55.79
77572;BME280;67214;47.454;18.966;2023-08-12T18:03:40;100558.94;;;23.35;57.38
77572;BME280;67214;47.454;18.966;2023-08-12T18:06:07;100559.58;;;23.16;58.93
77572;BME280;67214;47.454;18.966;2023-08-12T18:08:35;100559.08;;;22.95;59.43
77572;BME280;67214;47.454;18.966;2023-08-12T18:11:02;100560.00;;;22.81;59.94
77572;BME280;67214;47.454;18.966;2023-08-12T18:13:30;100554.47;;;22.64;60.83
77572;BME280;67214;47.454;18.966;2023-08-12T18:15:58;100562.64;;;22.49;60.88
77572;BME280;67214;47.454;18.966;2023-08-12T18:18:26;100564.47;;;22.38;59.96
77572;BME280;67214;47.454;18.966;2023-08-12T18:20:53;100561.82;;;22.34;59.67
77572;BME280;67214;47.454;18.966;2023-08-12T18:23:21;100573.07;;;22.27;61.22
77572;BME280;67214;47.454;18.966;2023-08-12T18:25:48;100574.45;;;22.12;62.48
77572;BME280;67214;47.454;18.966;2023-08-12T18:28:17;100571.39;;;22.01;62.35
77572;BME280;67214;47.454;18.966;2023-08-12T18:30:44;100582.44;;;21.91;63.95
77572;BME280;67214;47.454;18.966;2023-08-12T18:33:15;100581.27;;;21.75;64.54
77572;BME280;67214;47.454;18.966;2023-08-12T18:35:44;100586.13;;;21.61;64.65
77572;BME280;67214;47.454;18.966;2023-08-12T18:38:11;100588.11;;;21.48;64.97
77572;BME280;67214;47.454;18.966;2023-08-12T18:40:39;100589.06;;;21.37;65.70
77572;BME280;67214;47.454;18.966;2023-08-12T18:43:06;100594.20;;;21.27;65.96
77572;BME280;67214;47.454;18.966;2023-08-12T18:45:34;100593.76;;;21.20;65.92
77572;BME280;67214;47.454;18.966;2023-08-12T18:48:03;100602.93;;;21.15;65.72
77572;BME280;67214;47.454;18.966;2023-08-12T18:50:31;100587.75;;;21.10;65.37
77572;BME280;67214;47.454;18.966;2023-08-12T18:52:58;100598.95;;;21.03;66.54
77572;BME280;67214;47.454;18.966;2023-08-12T18:55:26;100597.99;;;20.92;67.25
77572;BME280;67214;47.454;18.966;2023-08-12T18:57:53;100603.14;;;20.82;66.99
77572;BME280;67214;47.454;18.966;2023-08-12T19:00:21;100596.95;;;20.74;67.33
77572;BME280;67214;47.454;18.966;2023-08-12T19:02:50;100608.27;;;20.69;66.27
77572;BME280;67214;47.454;18.966;2023-08-12T19:05:17;100607.92;;;20.68;66.57
77572;BME280;67214;47.454;18.966;2023-08-12T19:07:46;100614.69;;;20.64;66.86
77572;BME280;67214;47.454;18.966;2023-08-12T19:10:14;100613.73;;;20.57;67.83
77572;BME280;67214;47.454;18.966;2023-08-12T19:12:41;100618.31;;;20.49;68.20
77572;BME280;67214;47.454;18.966;2023-08-12T19:15:09;100623.22;;;20.45;68.04
77572;BME280;67214;47.454;18.966;2023-08-12T19:17:36;100630.14;;;20.39;68.84
77572;BME280;67214;47.454;18.966;2023-08-12T19:20:05;100628.67;;;20.33;69.28
77572;BME280;67214;47.454;18.966;2023-08-12T19:22:33;100631.87;;;20.24;69.27
77572;BME280;67214;47.454;18.966;2023-08-12T19:25:01;100637.09;;;20.18;69.77
77572;BME280;67214;47.454;18.966;2023-08-12T19:27:30;100629.73;;;20.08;70.43
77572;BME280;67214;47.454;18.966;2023-08-12T19:29:58;100634.79;;;20.03;71.09
77572;BME280;67214;47.454;18.966;2023-08-12T19:32:26;100622.05;;;19.92;71.33
77572;BME280;67214;47.454;18.966;2023-08-12T19:34:54;100628.26;;;19.85;71.96
77572;BME280;67214;47.454;18.966;2023-08-12T19:37:22;100630.47;;;19.77;71.07
77572;BME280;67214;47.454;18.966;2023-08-12T19:39:50;100629.81;;;19.75;71.24
77572;BME280;67214;47.454;18.966;2023-08-12T19:42:18;100630.16;;;19.72;71.13
77572;BME280;67214;47.454;18.966;2023-08-12T19:44:46;100635.70;;;19.71;71.75
77572;BME280;67214;47.454;18.966;2023-08-12T19:47:14;100633.86;;;19.67;71.53
77572;BME280;67214;47.454;18.966;2023-08-12T19:49:42;100637.20;;;19.69;71.58
77572;BME280;67214;47.454;18.966;2023-08-12T19:52:10;100633.52;;;19.70;71.40
77572;BME280;67214;47.454;18.966;2023-08-12T19:54:38;100642.94;;;19.66;72.65
77572;BME280;67214;47.454;18.966;2023-08-12T19:57:06;100642.45;;;19.59;73.11
77572;BME280;67214;47.454;18.966;2023-08-12T19:59:35;100643.64;;;19.52;73.81
77572;BME280;67214;47.454;18.966;2023-08-12T20:02:02;100645.30;;;19.45;74.50
77572;BME280;67214;47.454;18.966;2023-08-12T20:04:30;100641.92;;;19.39;74.77
77572;BME280;67214;47.454;18.966;2023-08-12T20:06:58;100643.43;;;19.33;75.08
77572;BME280;67214;47.454;18.966;2023-08-12T20:09:26;100644.27;;;19.30;74.97
77572;BME280;67214;47.454;18.966;2023-08-12T20:11:54;100647.30;;;19.27;74.79
77572;BME280;67214;47.454;18.966;2023-08-12T20:14:21;100639.73;;;19.26;73.68
77572;BME280;67214;47.454;18.966;2023-08-12T20:16:49;100653.53;;;19.27;73.66
77572;BME280;67214;47.454;18.966;2023-08-12T20:19:17;100652.00;;;19.29;73.63
77572;BME280;67214;47.454;18.966;2023-08-12T20:21:45;100654.34;;;19.32;73.81
77572;BME280;67214;47.454;18.966;2023-08-12T20:24:13;100659.41;;;19.27;74.26
77572;BME280;67214;47.454;18.966;2023-08-12T20:26:42;100650.65;;;19.25;74.60
77572;BME280;67214;47.454;18.966;2023-08-12T20:29:10;100661.25;;;19.26;74.11
77572;BME280;67214;47.454;18.966;2023-08-12T20:31:38;100662.94;;;19.23;74.55
77572;BME280;67214;47.454;18.966;2023-08-12T20:34:07;100657.72;;;19.22;74.93
77572;BME280;67214;47.454;18.966;2023-08-12T20:36:35;100661.75;;;19.22;75.12
77572;BME280;67214;47.454;18.966;2023-08-12T20:39:04;100662.25;;;19.25;74.57
77572;BME280;67214;47.454;18.966;2023-08-12T20:41:32;100664.94;;;19.21;74.82
77572;BME280;67214;47.454;18.966;2023-08-12T20:44:00;100660.24;;;19.15;75.19
77572;BME280;67214;47.454;18.966;2023-08-12T20:46:27;100659.05;;;19.06;74.98
77572;BME280;67214;47.454;18.966;2023-08-12T20:48:55;100670.44;;;18.95;75.59
77572;BME280;67214;47.454;18.966;2023-08-12T20:51:23;100673.11;;;18.91;75.50
77572;BME280;67214;47.454;18.966;2023-08-12T20:53:51;100673.81;;;18.93;75.24
77572;BME280;67214;47.454;18.966;2023-08-12T20:56:19;100664.23;;;18.87;75.69
77572;BME280;67214;47.454;18.966;2023-08-12T20:58:47;100662.86;;;18.79;75.79
77572;BME280;67214;47.454;18.966;2023-08-12T21:01:14;100674.10;;;18.74;76.14
77572;BME280;67214;47.454;18.966;2023-08-12T21:03:42;100667.36;;;18.66;76.61
77572;BME280;67214;47.454;18.966;2023-08-12T21:06:09;100674.86;;;18.58;77.18
77572;BME280;67214;47.454;18.966;2023-08-12T21:08:37;100681.00;;;18.47;77.05
77572;BME280;67214;47.454;18.966;2023-08-12T21:11:04;100678.00;;;18.46;76.89
77572;BME280;67214;47.454;18.966;2023-08-12T21:13:32;100675.95;;;18.44;77.29
77572;BME280;67214;47.454;18.966;2023-08-12T21:15:59;100671.05;;;18.35;77.01
77572;BME280;67214;47.454;18.966;2023-08-12T21:18:27;100668.34;;;18.31;77.01
77572;BME280;67214;47.454;18.966;2023-08-12T21:20:56;100659.42;;;18.27;76.88
77572;BME280;67214;47.454;18.966;2023-08-12T21:23:23;100674.14;;;18.19;76.71
77572;BME280;67214;47.454;18.966;2023-08-12T21:25:51;100679.04;;;18.23;76.58
77572;BME280;67214;47.454;18.966;2023-08-12T21:28:19;100665.22;;;18.14;76.53
77572;BME280;67214;47.454;18.966;2023-08-12T21:30:47;100664.33;;;18.05;76.77
77572;BME280;67214;47.454;18.966;2023-08-12T21:33:14;100670.70;;;18.00;77.01
77572;BME280;67214;47.454;18.966;2023-08-12T21:35:47;100665.13;;;17.98;77.21
77572;BME280;67214;47.454;18.966;2023-08-12T21:38:15;100661.23;;;17.88;77.14
77572;BME280;67214;47.454;18.966;2023-08-12T21:40:42;100673.28;;;17.84;77.31
77572;BME280;67214;47.454;18.966;2023-08-12T21:43:10;100667.24;;;17.86;77.23
77572;BME280;67214;47.454;18.966;2023-08-12T21:45:37;100663.05;;;17.84;77.28
77572;BME280;67214;47.454;18.966;2023-08-12T21:48:05;100668.06;;;17.83;77.62
77572;BME280;67214;47.454;18.966;2023-08-12T21:50:33;100672.91;;;17.79;77.36
77572;BME280;67214;47.454;18.966;2023-08-12T21:53:00;100667.42;;;17.85;76.99
77572;BME280;67214;47.454;18.966;2023-08-12T21:55:27;100667.19;;;17.78;77.03
77572;BME280;67214;47.454;18.966;2023-08-12T21:57:55;100659.81;;;17.76;76.99
77572;BME280;67214;47.454;18.966;2023-08-12T22:00:23;100660.28;;;17.72;76.85
77572;BME280;67214;47.454;18.966;2023-08-12T22:02:51;100665.91;;;17.60;77.08
77572;BME280;67214;47.454;18.966;2023-08-12T22:05:18;100664.71;;;17.59;77.38
77572;BME280;67214;47.454;18.966;2023-08-12T22:07:46;100660.48;;;17.56;77.39
77572;BME280;67214;47.454;18.966;2023-08-12T22:10:13;100660.06;;;17.47;77.44
77572;BME280;67214;47.454;18.966;2023-08-12T22:12:40;100659.47;;;17.36;77.96
77572;BME280;67214;47.454;18.966;2023-08-12T22:15:08;100643.98;;;17.30;78.13
77572;BME280;67214;47.454;18.966;2023-08-12T22:17:36;100650.34;;;17.29;78.30
77572;BME280;67214;47.454;18.966;2023-08-12T22:20:04;100644.37;;;17.35;78.41
77572;BME280;67214;47.454;18.966;2023-08-12T22:22:32;100656.79;;;17.36;78.43
77572;BME280;67214;47.454;18.966;2023-08-12T22:24:59;100647.72;;;17.37;78.40
77572;BME280;67214;47.454;18.966;2023-08-12T22:27:27;100650.87;;;17.32;77.89
77572;BME280;67214;47.454;18.966;2023-08-12T22:29:54;100647.66;;;17.29;78.08
77572;BME280;67214;47.454;18.966;2023-08-12T22:32:21;100643.84;;;17.31;77.82
77572;BME280;67214;47.454;18.966;2023-08-12T22:34:49;100645.11;;;17.23;77.75
77572;BME280;67214;47.454;18.966;2023-08-12T22:37:16;100646.95;;;17.23;77.83
77572;BME280;67214;47.454;18.966;2023-08-12T22:39:44;100649.24;;;17.17;78.45
77572;BME280;67214;47.454;18.966;2023-08-12T22:42:11;100647.86;;;17.13;78.83
77572;BME280;67214;47.454;18.966;2023-08-12T22:44:38;100648.32;;;17.09;78.54
77572;BME280;67214;47.454;18.966;2023-08-12T22:47:06;100649.84;;;17.07;78.60
77572;BME280;67214;47.454;18.966;2023-08-12T22:49:33;100647.69;;;17.11;78.55
77572;BME280;67214;47.454;18.966;2023-08-12T22:52:01;100641.27;;;17.08;78.68
77572;BME280;67214;47.454;18.966;2023-08-12T22:54:28;100645.81;;;17.07;78.92